Latest Weather Observations for Bairnsdale

IDV60801

Issued at 1:33 am EDT Tuesday 28 March 2017 (issued every 30 minutes, with the page automatically refreshed every 10 minutes)

About weather observations | Map of weather stations | Latest weather observations for VIC | Other Formats
Station Details ID: 085279 Name: BAIRNSDALE AIRPORT Lat: -37.88 Lon: 147.57 Height: 49.4 m
Data from the previous 72 hours. | See also: Recent months at Bairnsdale
Date/Time
EDT
Temp
°C
App
Temp
°C
Dew
Point
°C
Rel
Hum
%
Delta-T
°C
Wind Press
QNH
hPa
Press
MSL
hPa
Rain since
9am
mm
Dir  Spd
km/h
Gust
km/h
Spd
kts
Gust
kts
28/01:30am 11.1 9.6 10.5 96 0.3 NNW 9 13 5 7 1014.1 1014.0 11.6
28/01:00am 10.9 9.3 10.1 95 0.4 NNW 9 11 5 6 1014.1 1014.0 11.6
28/12:30am 11.7 10.3 10.8 94 0.5 NNE 9 11 5 6 1014.2 1014.1 11.6
28/12:00am 11.0 9.2 9.4 90 0.8 NNW 9 13 5 7 1014.0 1013.9 11.6
 
Date/Time
EDT
Temp
°C
App
Temp
°C
Dew
Point
°C
Rel
Hum
%
Delta-T
°C
Wind Press
QNH
hPa
Press
MSL
hPa
Rain since
9am
mm
Dir  Spd
km/h
Gust
km/h
Spd
kts
Gust
kts
27/11:30pm 12.6 11.3 11.2 91 0.7 N 9 13 5 7 1013.7 1013.6 11.4
27/11:00pm 12.8 11.7 11.9 94 0.5 N 9 15 5 8 1013.9 1013.8 11.4
27/10:30pm 12.0 11.0 10.9 93 0.6 E 7 9 4 5 1013.7 1013.6 11.4
27/10:00pm 11.4 11.5 10.1 92 0.7 CALM 0 6 0 3 1013.7 1013.6 11.4
27/09:30pm 11.4 10.2 9.7 89 0.9 NE 6 9 3 5 1013.4 1013.3 11.4
27/09:00pm 13.4 12.3 10.6 83 1.5 NNE 7 9 4 5 1013.2 1013.1 11.4
27/08:30pm 13.5 12.4 9.9 79 1.9 WNW 6 9 3 5 1013.0 1012.9 11.4
27/08:00pm 14.7 12.5 10.9 78 2.0 W 13 20 7 11 1012.7 1012.6 11.4
27/07:30pm 14.9 11.3 12.0 83 1.6 WSW 22 33 12 18 1012.1 1012.0 11.4
27/07:00pm 15.3 10.4 12.6 84 1.5 SW 30 44 16 24 1011.8 1011.7 11.4
27/06:30pm 15.3 12.8 14.0 92 0.7 SW 20 28 11 15 1011.4 1011.3 11.2
27/06:28pm 15.2 12.3 13.9 92 0.7 SW 22 30 12 16 1011.3 1011.2 11.2
27/06:22pm 15.2 11.5 13.9 92 0.7 SW 26 35 14 19 1010.6 1010.5 11.2
27/06:10pm 14.9 10.8 13.9 94 0.6 WSW 28 41 15 22 1010.8 1010.7 10.8
27/06:04pm 15.3 11.4 14.3 94 0.6 WSW 28 41 15 22 1011.8 1011.7 8.4
27/06:00pm 15.3 11.4 14.5 95 0.5 SW 28 41 15 22 1010.9 1010.8 8.4
27/05:54pm 15.6 12.5 14.6 94 0.6 WSW 24 39 13 21 1011.1 1011.0 6.8
27/05:53pm 15.7 12.2 14.6 93 0.6 WSW 26 52 14 28 1010.9 1010.8 5.8
27/05:49pm 15.8 11.0 14.7 93 0.6 SW 33 52 18 28 1011.4 1011.3 4.4
27/05:42pm 15.8 9.8 14.5 92 0.7 SW 39 52 21 28 1009.9 1009.8 4.0
27/05:30pm 15.6 10.4 14.5 93 0.6 SW 35 50 19 27 1008.8 1008.6 4.0
27/05:21pm 15.7 9.6 14.1 90 0.9 WSW 39 52 21 28 1010.3 1010.2 2.4
27/05:18pm 16.3 9.8 14.0 86 1.3 SW 41 65 22 35 1011.4 1011.3 0.4
27/05:17pm 16.3 9.3 13.8 85 1.4 SW 43 65 23 35 1011.0 1010.9 0.4
27/05:00pm 18.6 10.1 11.9 65 3.7 SW 48 82 26 44 1008.9 1008.7 0.0
27/04:33pm 22.7 15.8 14.0 58 5.1 SW 43 69 23 37 1007.6 1007.5 0.0
27/04:30pm 23.0 16.6 15.3 62 4.6 SSW 43 56 23 30 1007.4 1007.3 0.0
27/04:11pm 23.2 15.8 16.3 65 4.2 SSW 50 67 27 36 1006.4 1006.3 0.0
27/04:08pm 23.0 14.8 16.1 65 4.2 S 54 69 29 37 1006.0 1005.9 0.0
27/04:00pm 23.4 18.4 16.0 63 4.5 S 37 69 20 37 1004.9 1004.8 0.0
27/03:54pm 27.1 26.1 15.5 49 7.1 NNW 15 52 8 28 1004.7 1004.6 0.0
27/03:30pm 34.6 30.7 14.5 30 12.4 NNW 28 39 15 21 1002.5 1002.4 0.0
27/03:00pm 35.5 30.8 14.2 28 13.2 NNW 32 46 17 25 1002.1 1002.0 0.0
27/02:48pm 37.0 32.3 14.3 26 14.1 NNW 32 50 17 27 1002.0 1001.9 0.0
27/02:30pm 36.4 31.0 13.8 26 13.9 NW 35 52 19 28 1002.4 1002.3 0.0
27/02:00pm 37.2 32.6 14.5 26 14.2 NW 32 48 17 26 1002.6 1002.5 0.0
27/01:30pm 36.2 32.6 14.2 26 13.6 NNW 26 35 14 19 1002.8 1002.7 0.0
27/01:00pm 34.7 31.0 14.0 28 12.8 NNW 26 41 14 22 1003.8 1003.7 0.0
27/12:30pm 33.7 29.6 13.7 30 12.2 NNW 28 39 15 21 1004.3 1004.2 0.0
27/12:00pm 34.7 30.9 14.6 30 12.5 NNW 28 39 15 21 1004.7 1004.6 0.0
27/11:32am 34.3 30.3 14.2 29 12.4 NNW 28 46 15 25 1005.2 1005.1 0.0
27/11:30am 34.4 30.8 14.3 30 12.4 NNW 26 37 14 20 1005.3 1005.2 0.0
27/11:00am 32.7 31.0 14.8 34 11.1 NNW 17 28 9 15 1005.6 1005.5 0.0
27/10:30am 30.3 29.3 15.6 41 9.1 N 15 20 8 11 1006.0 1005.9 0.0
27/10:00am 26.6 27.2 17.7 58 5.6 NE 11 15 6 8 1006.4 1006.3 0.0
27/09:30am 23.9 24.8 17.6 68 3.9 NE 9 13 5 7 1007.0 1006.9 0.0
27/09:00am 23.9 25.1 17.4 67 4.0 NE 7 11 4 6 1007.3 1007.2 0.0
27/08:30am 20.9 22.0 17.1 79 2.3 NE 7 11 4 6 1007.7 1007.6 0.0
27/08:00am 19.4 19.1 16.4 83 1.8 NE 13 17 7 9 1007.6 1007.5 0.0
27/07:30am 17.3 17.0 15.5 89 1.1 NE 11 15 6 8 1007.7 1007.6 0.0
27/07:00am 16.7 15.7 15.6 93 0.6 NE 15 20 8 11 1007.7 1007.6 0.0
27/06:30am 15.6 15.5 15.0 96 0.3 NNE 9 11 5 6 1007.8 1007.7 0.0
27/06:00am 15.1 14.8 14.5 96 0.3 N 9 11 5 6 1008.1 1008.0 0.0
27/05:30am 16.3 15.8 15.8 97 0.3 NNE 13 15 7 8 1008.2 1008.1 0.0
27/05:00am 15.6 16.2 15.3 98 0.2 NNE 6 9 3 5 1008.3 1008.2 0.0
27/04:44am 15.1 16.3 14.8 98 0.2 NE 2 7 1 4 1008.3 1008.2 0.0
27/04:30am 15.0 15.4 14.7 98 0.2 NNE 6 9 3 5 1008.6 1008.4 0.0
27/04:24am 14.8 14.9 14.5 98 0.2 NE 7 9 4 5 1008.7 1008.5 0.0
27/04:00am 15.2 15.7 14.9 98 0.2 NNE 6 7 3 4 1009.1 1008.9 0.0
27/03:52am 15.3 15.6 15.0 98 0.2 N 7 9 4 5 1009.1 1008.9 0.0
27/03:30am 14.6 14.6 14.3 98 0.2 NNW 7 9 4 5 1009.6 1009.5 0.0
27/03:00am 14.3 14.2 13.8 97 0.3 N 7 11 4 6 1010.1 1010.0 0.0
27/02:30am 14.5 14.6 14.0 97 0.3 NNE 6 6 3 3 1010.4 1010.3 0.0
27/02:26am 14.7 14.9 14.2 97 0.3 NNE 6 6 3 3 1010.4 1010.3 0.0
27/02:00am 14.8 15.0 14.3 97 0.3 NNE 6 7 3 4 1011.0 1010.9 0.0
27/01:30am 15.1 15.8 14.6 97 0.3 N 4 6 2 3 1011.4 1011.3 0.0
27/01:00am 15.7 16.1 15.2 97 0.3 NNW 7 11 4 6 1012.1 1012.0 0.0
27/12:30am 15.2 16.7 14.6 96 0.3 CALM 0 4 0 2 1012.5 1012.4 0.0
27/12:27am 15.9 17.3 15.4 97 0.3 WNW 2 6 1 3 1012.4 1012.3 0.0
27/12:18am 15.9 16.9 15.4 97 0.3 WNW 4 6 2 3 1012.5 1012.4 0.0
27/12:00am 16.0 16.7 15.5 97 0.3 NW 6 7 3 4 1012.9 1012.8 0.0
 
Date/Time
EDT
Temp
°C
App
Temp
°C
Dew
Point
°C
Rel
Hum
%
Delta-T
°C
Wind Press
QNH
hPa
Press
MSL
hPa
Rain since
9am
mm
Dir  Spd
km/h
Gust
km/h
Spd
kts
Gust
kts
26/11:30pm 16.5 17.2 16.0 97 0.3 NW 7 9 4 5 1013.3 1013.2 0.0
26/11:04pm 16.2 16.9 15.6 96 0.4 NW 6 9 3 5 1013.7 1013.6 0.0
26/11:00pm 16.6 17.5 16.0 96 0.4 NW 6 7 3 4 1013.7 1013.6 0.0
26/10:30pm 16.7 18.7 15.9 95 0.5 CALM 0 0 0 0 1014.0 1013.9 0.0
26/10:00pm 16.9 18.8 15.8 93 0.6 CALM 0 0 0 0 1014.3 1014.2 0.0
26/09:35pm 17.9 19.5 16.8 93 0.7 NE 4 6 2 3 1014.3 1014.2 0.0
26/09:30pm 18.1 19.3 16.8 92 0.8 NE 6 7 3 4 1014.3 1014.2 0.0
26/09:00pm 18.8 19.7 17.5 92 0.8 E 9 13 5 7 1014.2 1014.1 0.0
26/08:38pm 18.9 19.5 17.6 92 0.8 E 11 15 6 8 1014.1 1014.0 0.0
26/08:30pm 18.9 19.5 17.7 93 0.7 E 11 15 6 8 1014.0 1013.9 0.0
26/08:00pm 18.9 18.7 17.6 92 0.8 E 15 17 8 9 1013.9 1013.8 0.0
26/07:30pm 18.7 19.0 17.0 90 1.0 ESE 11 17 6 9 1013.8 1013.7 0.0
26/07:18pm 18.6 18.4 16.8 89 1.1 ESE 13 19 7 10 1013.7 1013.6 0.0
26/07:00pm 18.7 18.0 16.3 86 1.4 ESE 15 19 8 10 1013.5 1013.4 0.0
26/06:30pm 19.4 18.2 16.2 82 1.9 ESE 17 22 9 12 1013.4 1013.3 0.0
26/06:00pm 20.0 18.8 16.0 78 2.4 SE 17 19 9 10 1013.1 1013.0 0.0
26/05:30pm 21.0 19.4 16.0 73 3.0 ESE 19 22 10 12 1012.8 1012.7 0.0
26/05:00pm 21.5 19.3 16.0 71 3.3 SE 22 26 12 14 1012.7 1012.6 0.0
26/04:30pm 23.2 21.5 16.3 65 4.2 SE 20 26 11 14 1012.8 1012.7 0.0
26/04:00pm 24.5 22.9 16.5 61 4.9 ESE 20 26 11 14 1012.9 1012.8 0.0
26/03:30pm 23.9 22.3 16.4 63 4.6 SE 20 26 11 14 1012.9 1012.8 0.0
26/03:00pm 25.6 24.3 16.7 58 5.5 SE 19 28 10 15 1013.1 1013.0 0.0
26/02:30pm 25.5 24.4 16.4 57 5.6 SE 17 26 9 14 1013.4 1013.3 0.0
26/02:00pm 25.7 25.5 16.8 58 5.5 SE 13 22 7 12 1013.9 1013.8 0.0
26/01:30pm 24.6 23.6 16.6 61 4.9 SE 17 24 9 13 1014.3 1014.2 0.0
26/01:00pm 25.0 24.0 16.7 60 5.1 ESE 17 22 9 12 1014.9 1014.8 0.0
26/12:30pm 25.1 24.1 16.5 59 5.3 ESE 17 22 9 12 1015.3 1015.2 0.0
26/12:00pm 24.8 24.9 15.4 56 5.7 SSE 9 15 5 8 1015.5 1015.4 0.0
26/11:30am 25.2 25.8 15.8 56 5.7 E 7 13 4 7 1015.8 1015.7 0.0
26/11:00am 24.4 25.1 16.1 60 5.1 NE 7 11 4 6 1015.8 1015.7 0.0
26/10:30am 23.3 24.1 15.9 63 4.5 E 6 9 3 5 1015.9 1015.8 0.0
26/10:00am 22.0 22.2 15.8 68 3.7 NW 9 13 5 7 1016.0 1015.9 0.0
26/09:30am 20.9 21.0 16.5 76 2.7 NW 11 13 6 7 1015.8 1015.7 0.0
26/09:00am 19.3 19.8 16.5 84 1.7 NW 9 13 5 7 1015.6 1015.5 0.0
26/08:30am 18.2 18.3 16.4 89 1.1 NW 11 13 6 7 1015.3 1015.2 0.0
26/08:00am 16.5 15.8 15.4 93 0.6 NW 13 15 7 8 1015.1 1015.0 0.0
26/07:30am 15.5 15.2 14.5 94 0.6 NW 9 11 5 6 1014.8 1014.7 0.0
26/07:00am 16.0 15.9 14.9 93 0.6 NW 9 13 5 7 1014.5 1014.4 0.0
26/06:30am 15.9 15.0 14.8 93 0.6 NW 13 15 7 8 1014.3 1014.2 0.0
26/06:00am 16.0 14.7 14.9 93 0.6 WNW 15 17 8 9 1013.6 1013.5 0.0
26/05:30am 16.0 15.0 14.7 92 0.7 WNW 13 17 7 9 1013.4 1013.3 0.0
26/05:00am 16.7 15.3 15.6 93 0.6 WNW 17 19 9 10 1013.1 1013.0 0.0
26/04:30am 17.1 16.5 15.6 91 0.9 NW 13 15 7 8 1013.0 1012.9 0.0
26/04:00am 17.2 17.0 15.7 91 0.9 WNW 11 13 6 7 1012.8 1012.7 0.0
26/03:30am 17.9 17.8 15.9 88 1.2 WNW 11 13 6 7 1013.0 1012.9 0.0
26/03:00am 18.2 17.4 16.2 88 1.2 W 15 19 8 10 1013.0 1012.9 0.0
26/02:30am 17.1 17.1 16.3 95 0.5 WNW 11 13 6 7 1012.6 1012.5 0.0
26/02:00am 16.8 17.1 16.0 95 0.5 NW 9 11 5 6 1012.6 1012.5 0.0
26/01:30am 17.1 17.4 16.0 93 0.7 NW 9 11 5 6 1012.8 1012.7 0.0
26/01:00am 17.9 19.0 16.6 92 0.8 NW 6 7 3 4 1012.9 1012.8 0.0
26/12:30am 17.5 19.5 16.0 91 0.9 CALM 0 7 0 4 1013.0 1012.9 0.0
26/12:00am 18.1 18.9 16.3 89 1.1 N 7 9 4 5 1012.8 1012.7 0.0
 
Date/Time
EDT
Temp
°C
App
Temp
°C
Dew
Point
°C
Rel
Hum
%
Delta-T
°C
Wind Press
QNH
hPa
Press
MSL
hPa
Rain since
9am
mm
Dir  Spd
km/h
Gust
km/h
Spd
kts
Gust
kts
25/11:30pm 17.6 18.6 16.3 92 0.8 NE 6 9 3 5 1013.2 1013.1 0.0
25/11:00pm 18.3 18.8 16.5 89 1.1 E 9 9 5 5 1013.2 1013.1 0.0
25/10:30pm 17.7 18.4 15.5 87 1.3 N 6 7 3 4 1013.2 1013.1 0.0
25/10:00pm 18.7 19.3 15.8 83 1.7 NE 7 11 4 6 1013.1 1013.0 0.0
25/09:30pm 19.7 19.9 15.8 78 2.3 ENE 9 11 5 6 1013.2 1013.1 0.0
25/09:00pm 18.9 18.6 15.4 80 2.1 E 11 13 6 7 1012.8 1012.7 0.0
25/08:30pm 19.7 19.9 15.8 78 2.3 ESE 9 11 5 6 1012.5 1012.4 0.0
25/08:00pm 20.5 21.1 15.7 74 2.9 E 7 9 4 5 1012.3 1012.2 0.0
25/07:30pm 21.3 21.4 15.6 70 3.4 E 9 11 5 6 1012.0 1011.9 0.0
25/07:00pm 22.8 21.9 14.9 61 4.7 E 13 17 7 9 1011.8 1011.7 0.0
25/06:30pm 24.4 22.2 14.5 54 5.9 ESE 19 20 10 11 1011.6 1011.5 0.0
25/06:00pm 25.5 23.4 14.6 51 6.5 ESE 19 22 10 12 1011.4 1011.3 0.0
25/05:30pm 26.1 24.2 15.2 51 6.6 ESE 19 22 10 12 1011.4 1011.3 0.0
25/05:00pm 26.4 25.2 16.1 53 6.3 ESE 17 24 9 13 1011.1 1011.0 0.0
25/04:30pm 26.3 24.5 16.0 53 6.3 ESE 20 26 11 14 1010.8 1010.7 0.0
25/04:00pm 26.5 26.2 15.5 50 6.7 SSE 11 17 6 9 1011.3 1011.2 0.0
25/03:30pm 28.1 28.1 15.1 45 7.9 NNE 9 17 5 9 1011.6 1011.5 0.0
25/03:00pm 27.0 27.4 15.4 49 7.1 NNW 7 13 4 7 1011.8 1011.7 0.0
25/02:30pm 26.7 26.7 15.1 49 7.0 NNW 9 20 5 11 1012.0 1011.9 0.0
25/02:00pm 25.8 25.5 15.5 53 6.3 NW 11 17 6 9 1012.3 1012.2 0.0
25/01:30pm 25.2 24.5 15.5 55 5.9 NW 13 17 7 9 1012.6 1012.5 0.0
25/01:00pm 24.3 23.8 15.8 59 5.2 NW 13 17 7 9 1013.1 1013.0 0.0
25/12:30pm 23.6 22.7 15.9 62 4.7 NW 15 20 8 11 1013.6 1013.5 0.0
25/12:00pm 22.6 22.8 15.7 65 4.2 W 9 13 5 7 1013.8 1013.7 0.0
25/11:30am 21.6 21.3 15.4 68 3.7 WSW 11 13 6 7 1014.0 1013.9 0.0
25/11:00am 20.4 20.5 15.6 74 2.9 NW 9 13 5 7 1014.2 1014.1 0.0
25/10:30am 18.7 19.3 15.4 81 1.9 NW 6 9 3 5 1013.9 1013.8 0.0
25/10:00am 17.9 18.4 15.5 86 1.4 WNW 7 48 4 26 1014.0 1013.9 0.0
25/09:30am 16.8 18.5 15.2 90 0.9 CALM 0 0 0 0 1013.8 1013.7 0.0
25/09:00am 16.3 17.2 15.2 93 0.6 S 4 7 2 4 1013.5 1013.4 0.0
25/08:30am 15.8 16.3 15.0 95 0.5 NNE 6 6 3 3 1013.2 1013.1 0.0
25/08:00am 15.4 15.7 14.6 95 0.5 ESE 6 7 3 4 1012.6 1012.5 0.0
25/07:30am 15.1 15.1 14.3 95 0.5 E 7 9 4 5 1012.5 1012.4 0.0
25/07:00am 14.9 14.6 14.3 96 0.3 SSE 9 13 5 7 1012.8 1012.7 0.0
25/06:30am 14.6 14.5 14.0 96 0.3 NNE 7 11 4 6 1012.8 1012.7 0.0
25/06:00am 14.2 13.6 13.6 96 0.3 NE 9 11 5 6 1012.7 1012.6 0.0
25/05:30am 14.2 14.2 13.7 97 0.3 N 6 7 3 4 1013.2 1013.1 0.0
25/05:00am 14.2 14.2 13.7 97 0.3 NNW 6 7 3 4 1013.8 1013.7 0.0
25/04:30am 13.8 13.7 13.3 97 0.3 NNW 6 7 3 4 1014.1 1014.0 0.0
25/04:00am 13.8 13.1 13.3 97 0.3 NNW 9 11 5 6 1014.2 1014.1 0.0
25/03:30am 13.6 12.8 13.0 96 0.3 NNW 9 11 5 6 1014.7 1014.6 0.0
25/03:00am 13.3 12.4 12.5 95 0.4 NW 9 9 5 5 1015.0 1014.9 0.0
25/02:30am 13.7 14.6 12.9 95 0.4 CALM 0 0 0 0 1015.1 1015.0 0.0
25/02:00am 14.2 15.3 13.6 96 0.3 CALM 0 4 0 2 1015.1 1015.0 0.0

Other Formats:

Comma delimited format used in spreadsheet applications
http://www.bom.gov.au/fwo/IDV60801/IDV60801.94912.axf

JavaScript Object Notation format (JSON) in row-major order
http://www.bom.gov.au/fwo/IDV60801/IDV60801.94912.json